Time;durP1;ratioP1;P1;durP2;ratioP2;P2;SDS_P1;SDS_P2;PMS_P1;PMS_P2;Temp;Humidity;BMP_temperature;BMP_pressure;BME280_temperature;BME280_humidity;BME280_pressure;Samples;Min_cycle;Max_cycle;Signal;HPM_P1;HPM_P2
2023/11/10 00:01:24;;;;;;;5.30;1.60;;;6.10;99.90;;;;;;4910888;28;20696;-65
2023/11/10 00:03:49;;;;;;;9.77;4.27;;;6.20;99.90;;;;;;4910340;28;20653;-65
2023/11/10 00:06:15;;;;;;;5.30;2.03;;;6.20;99.90;;;;;;4902682;28;20188;-64
2023/11/10 00:08:41;;;;;;;4.60;2.17;;;6.20;99.90;;;;;;4910944;28;20196;-64
2023/11/10 00:11:07;;;;;;;5.00;1.53;;;6.30;99.90;;;;;;4910621;28;20235;-65
2023/11/10 00:13:34;;;;;;;6.40;1.80;;;6.30;99.90;;;;;;4909596;28;20198;-64
2023/11/10 00:16:00;;;;;;;3.10;1.50;;;6.30;99.90;;;;;;4909133;28;20192;-64
2023/11/10 00:18:25;;;;;;;4.83;1.40;;;6.30;99.90;;;;;;4910813;28;20271;-65
2023/11/10 00:20:51;;;;;;;5.93;1.30;;;6.30;99.90;;;;;;4910713;28;20736;-64
2023/11/10 00:23:18;;;;;;;3.13;1.10;;;6.40;99.90;;;;;;4943298;28;20189;-64
2023/11/10 00:25:43;;;;;;;1.60;1.00;;;6.40;99.90;;;;;;4910210;28;20610;-65
2023/11/10 00:28:10;;;;;;;3.77;1.10;;;6.30;99.90;;;;;;4909798;28;20196;-65
2023/11/10 00:30:36;;;;;;;2.00;1.10;;;6.40;99.90;;;;;;4899421;28;20216;-65
2023/11/10 00:33:02;;;;;;;1.77;1.10;;;6.30;99.90;;;;;;4906925;28;20190;-65
2023/11/10 00:35:28;;;;;;;4.47;2.13;;;6.40;99.90;;;;;;4912616;28;20180;-65
2023/11/10 00:37:53;;;;;;;5.20;1.80;;;6.40;99.90;;;;;;4913974;28;20242;-64
2023/11/10 00:40:19;;;;;;;3.17;1.20;;;6.40;99.90;;;;;;4913637;28;20636;-64
2023/11/10 00:42:45;;;;;;;4.27;1.23;;;6.40;99.90;;;;;;4913877;28;20204;-65
2023/11/10 00:45:10;;;;;;;5.13;1.20;;;6.40;99.90;;;;;;4913042;28;20668;-65
2023/11/10 00:47:36;;;;;;;4.67;1.20;;;6.40;99.90;;;;;;4913728;28;20267;-65
2023/11/10 00:50:02;;;;;;;1.90;1.13;;;6.40;99.90;;;;;;4913400;28;20697;-65
2023/11/10 00:52:27;;;;;;;3.70;1.60;;;6.40;99.90;;;;;;4913598;28;20189;-65
2023/11/10 00:54:53;;;;;;;5.97;1.93;;;6.40;99.90;;;;;;4912954;28;20188;-64
2023/11/10 00:57:19;;;;;;;4.20;1.80;;;6.40;99.90;;;;;;4913493;28;20892;-65
2023/11/10 00:59:44;;;;;;;5.50;2.13;;;6.40;99.90;;;;;;4913475;28;20586;-65
2023/11/10 01:02:10;;;;;;;7.67;1.40;;;6.40;99.90;;;;;;4913454;28;20214;-65
2023/11/10 01:04:35;;;;;;;5.57;1.70;;;6.40;99.90;;;;;;4912889;28;20199;-64
2023/11/10 01:07:01;;;;;;;4.13;1.40;;;6.40;99.90;;;;;;4913443;28;20692;-66
2023/11/10 01:09:27;;;;;;;5.03;1.80;;;6.40;99.90;;;;;;4913185;28;20283;-65
2023/11/10 01:11:53;;;;;;;2.67;1.07;;;6.40;99.90;;;;;;4913442;28;20610;-65
2023/11/10 01:14:20;;;;;;;3.57;1.10;;;6.30;99.90;;;;;;4912412;28;20677;-66
2023/11/10 01:16:46;;;;;;;4.63;1.10;;;6.30;99.90;;;;;;4913284;28;20228;-65
2023/11/10 01:19:12;;;;;;;5.70;1.20;;;6.40;99.90;;;;;;4913089;28;20254;-64
2023/11/10 01:21:40;;;;;;;4.17;0.80;;;6.30;99.90;;;;;;4908801;28;20220;-65
2023/11/10 01:24:06;;;;;;;6.77;1.20;;;6.20;99.90;;;;;;4910371;28;20192;-65
2023/11/10 01:26:32;;;;;;;5.53;1.27;;;6.20;99.90;;;;;;4944719;28;20738;-65
2023/11/10 01:28:57;;;;;;;4.50;1.00;;;6.20;99.90;;;;;;4945032;28;20680;-64
2023/11/10 01:31:23;;;;;;;1.50;1.00;;;6.20;99.90;;;;;;4912990;28;20219;-65
2023/11/10 01:33:48;;;;;;;2.47;0.90;;;6.10;99.90;;;;;;4912469;28;20275;-64
2023/11/10 01:36:14;;;;;;;2.70;0.80;;;6.00;99.90;;;;;;4913030;28;20339;-65
2023/11/10 01:38:42;;;;;;;3.27;1.20;;;6.00;99.90;;;;;;4913220;28;20246;-65
2023/11/10 01:41:09;;;;;;;1.97;1.00;;;6.00;99.90;;;;;;4912792;28;20270;-64
2023/11/10 01:43:34;;;;;;;2.57;1.20;;;6.10;99.90;;;;;;4912898;28;20234;-64
2023/11/10 01:46:01;;;;;;;8.17;1.23;;;6.00;99.90;;;;;;4911652;28;20187;-64
2023/11/10 01:48:27;;;;;;;4.13;0.80;;;6.10;99.90;;;;;;4904650;28;20184;-65
2023/11/10 01:50:53;;;;;;;6.37;1.10;;;6.10;99.90;;;;;;4912675;28;20246;-64
2023/11/10 01:53:18;;;;;;;2.23;0.90;;;6.10;99.90;;;;;;4912363;28;20184;-64
2023/11/10 01:55:47;;;;;;;7.23;1.20;;;6.10;99.90;;;;;;4912112;28;20184;-64
2023/11/10 01:58:12;;;;;;;1.20;0.80;;;6.10;99.90;;;;;;4912712;28;20188;-64
2023/11/10 02:00:38;;;;;;;5.90;1.17;;;6.00;99.90;;;;;;4912542;28;20203;-64
2023/11/10 02:03:05;;;;;;;5.40;1.17;;;6.00;99.90;;;;;;4904748;28;20194;-64
2023/11/10 02:05:32;;;;;;;2.73;0.97;;;6.00;99.90;;;;;;4904282;28;20726;-65
2023/11/10 02:07:58;;;;;;;7.57;0.90;;;6.00;99.90;;;;;;4912547;28;20196;-64
2023/11/10 02:10:23;;;;;;;2.47;1.10;;;6.00;99.90;;;;;;4904320;28;20255;-65
2023/11/10 02:12:59;;;;;;;3.80;1.13;;;6.00;99.90;;;;;;4912337;28;20211;-64
2023/11/10 02:15:25;;;;;;;3.83;0.87;;;6.00;99.90;;;;;;4904219;28;21594;-64
2023/11/10 02:17:52;;;;;;;4.77;1.00;;;6.00;99.90;;;;;;4912327;28;20207;-64
2023/11/10 02:20:17;;;;;;;3.70;1.00;;;6.10;99.90;;;;;;4912293;28;20285;-64
2023/11/10 02:22:44;;;;;;;3.97;1.10;;;6.10;99.90;;;;;;4912291;28;20673;-65
2023/11/10 02:25:17;;;;;;;2.20;0.90;;;6.10;99.90;;;;;;4911454;28;20282;-65
2023/11/10 02:27:43;;;;;;;5.17;1.00;;;6.20;99.90;;;;;;4912567;28;20319;-64
2023/11/10 02:30:09;;;;;;;4.50;1.27;;;6.20;99.90;;;;;;4911925;28;20755;-64
2023/11/10 02:32:36;;;;;;;5.57;1.10;;;6.20;99.90;;;;;;4912118;28;20211;-64
2023/11/10 02:35:04;;;;;;;4.67;0.90;;;6.20;99.90;;;;;;4904251;28;20211;-65
2023/11/10 02:37:30;;;;;;;2.23;1.10;;;6.20;99.90;;;;;;4911734;28;20195;-65
2023/11/10 02:39:55;;;;;;;4.87;0.80;;;6.20;99.90;;;;;;4911892;28;20246;-65
2023/11/10 02:42:21;;;;;;;3.20;1.10;;;6.20;99.90;;;;;;4911959;28;20211;-64
2023/11/10 02:44:47;;;;;;;1.40;0.70;;;6.20;99.90;;;;;;4911577;28;20199;-64
2023/11/10 02:47:12;;;;;;;1.53;0.80;;;6.30;99.90;;;;;;4911889;28;20238;-65
2023/11/10 02:49:38;;;;;;;4.17;0.97;;;6.40;99.90;;;;;;4907430;28;20212;-65
2023/11/10 02:52:03;;;;;;;5.53;1.03;;;6.40;99.90;;;;;;4900691;28;20221;-64
2023/11/10 02:54:29;;;;;;;8.00;0.90;;;6.40;99.90;;;;;;4910837;28;20703;-65
2023/11/10 02:56:54;;;;;;;3.90;0.80;;;6.50;99.90;;;;;;4904318;28;20553;-65
2023/11/10 02:59:20;;;;;;;6.47;1.03;;;6.50;99.90;;;;;;4910417;28;20931;-65
2023/11/10 03:01:45;;;;;;;1.73;1.23;;;6.50;99.90;;;;;;4911884;28;20234;-64
2023/11/10 03:04:11;;;;;;;2.70;0.70;;;6.50;99.90;;;;;;4903346;28;20594;-63
2023/11/10 03:06:37;;;;;;;4.57;1.30;;;6.60;99.90;;;;;;4911675;28;20563;-64
2023/11/10 03:09:03;;;;;;;2.70;1.07;;;6.60;99.90;;;;;;4903839;28;20192;-64
2023/11/10 03:11:28;;;;;;;4.30;0.90;;;6.70;99.90;;;;;;4911230;28;20282;-64
2023/11/10 03:13:55;;;;;;;6.27;0.93;;;6.70;99.90;;;;;;4911025;28;20294;-63
2023/11/10 03:16:22;;;;;;;3.67;0.83;;;6.70;99.90;;;;;;4944136;28;20680;-65
2023/11/10 03:18:52;;;;;;;2.63;0.90;;;6.70;99.90;;;;;;4911531;28;20244;-64
2023/11/10 03:21:22;;;;;;;1.30;0.70;;;6.70;99.90;;;;;;4911300;28;20614;-63
2023/11/10 03:23:47;;;;;;;4.37;1.03;;;6.70;99.90;;;;;;4911009;28;20234;-63
2023/11/10 03:26:13;;;;;;;3.97;1.27;;;6.70;99.90;;;;;;4911182;28;20191;-64
2023/11/10 03:28:38;;;;;;;7.73;1.00;;;6.70;99.90;;;;;;4911528;28;20215;-64
2023/11/10 03:31:08;;;;;;;1.80;0.90;;;6.70;99.90;;;;;;4911197;28;20798;-64
2023/11/10 03:33:34;;;;;;;2.77;0.90;;;6.70;99.90;;;;;;4926424;28;20211;-65
2023/11/10 03:36:03;;;;;;;1.53;0.80;;;6.70;99.90;;;;;;4928230;28;20196;-64
2023/11/10 03:38:29;;;;;;;3.13;0.70;;;6.70;99.90;;;;;;4911308;28;20207;-65
2023/11/10 03:40:54;;;;;;;6.53;0.87;;;6.60;99.90;;;;;;4943944;28;20600;-65
2023/11/10 03:43:20;;;;;;;3.00;1.30;;;6.60;99.90;;;;;;4911202;28;20219;-64
2023/11/10 03:45:46;;;;;;;1.03;0.67;;;6.70;99.90;;;;;;4910803;28;20203;-64
2023/11/10 03:48:12;;;;;;;3.30;0.90;;;6.70;99.90;;;;;;4910697;28;20191;-63
2023/11/10 03:50:39;;;;;;;1.40;0.63;;;6.70;99.90;;;;;;4911154;28;20219;-63
2023/11/10 03:53:04;;;;;;;2.00;0.73;;;6.80;99.90;;;;;;4911341;28;20219;-63
2023/11/10 03:55:30;;;;;;;1.40;0.67;;;6.70;99.90;;;;;;4910246;28;20191;-64
2023/11/10 03:57:55;;;;;;;2.57;1.03;;;6.70;99.90;;;;;;4911072;28;20196;-64
2023/11/10 04:00:22;;;;;;;5.27;0.83;;;6.70;99.90;;;;;;4910826;28;20259;-64
2023/11/10 04:02:48;;;;;;;3.03;0.87;;;6.60;99.90;;;;;;4910940;28;20707;-63
2023/11/10 04:05:14;;;;;;;2.90;0.60;;;6.60;99.90;;;;;;4910232;28;20200;-63
2023/11/10 04:07:39;;;;;;;1.67;0.80;;;6.60;99.90;;;;;;4911208;28;20196;-65
2023/11/10 04:10:05;;;;;;;6.10;0.70;;;6.50;99.90;;;;;;4905528;28;20781;-63
2023/11/10 04:12:32;;;;;;;4.20;0.50;;;6.50;99.90;;;;;;4913982;28;20199;-64
2023/11/10 04:14:58;;;;;;;6.40;0.80;;;6.40;99.90;;;;;;4913274;28;20238;-64
2023/11/10 04:17:24;;;;;;;5.60;0.97;;;6.40;99.90;;;;;;4914104;28;20207;-64
2023/11/10 04:19:50;;;;;;;2.60;0.90;;;6.40;99.90;;;;;;4914370;28;20266;-64
2023/11/10 04:22:15;;;;;;;4.83;0.60;;;6.30;99.90;;;;;;4912854;28;20204;-63
2023/11/10 04:24:42;;;;;;;2.40;0.90;;;6.20;99.90;;;;;;4906790;28;20198;-65
2023/11/10 04:27:08;;;;;;;3.77;0.80;;;6.20;99.90;;;;;;4913795;28;20738;-64
2023/11/10 04:29:36;;;;;;;6.47;3.00;;;6.20;99.90;;;;;;4913887;28;20204;-64
2023/11/10 04:32:02;;;;;;;7.90;2.53;;;6.10;99.90;;;;;;4913909;28;20205;-63
2023/11/10 04:34:28;;;;;;;6.20;2.03;;;6.00;99.90;;;;;;4913238;28;20627;-65
2023/11/10 04:36:54;;;;;;;3.13;1.70;;;6.00;99.90;;;;;;4913936;28;20188;-63
2023/11/10 04:39:20;;;;;;;8.30;2.07;;;6.00;99.90;;;;;;4906082;28;20262;-64
2023/11/10 04:41:47;;;;;;;2.90;1.30;;;5.90;99.90;;;;;;4913553;28;20330;-63
2023/11/10 04:44:13;;;;;;;4.13;1.50;;;5.90;99.90;;;;;;4912939;28;20218;-64
2023/11/10 04:46:41;;;;;;;4.03;1.20;;;5.90;99.90;;;;;;4913722;28;20184;-64
2023/11/10 04:49:07;;;;;;;8.73;2.20;;;5.90;99.90;;;;;;4913535;28;20247;-65
2023/11/10 04:51:33;;;;;;;3.70;2.07;;;5.90;99.90;;;;;;4913645;28;20235;-66
2023/11/10 04:53:59;;;;;;;4.97;1.90;;;5.90;99.90;;;;;;4913112;28;20267;-64
2023/11/10 04:56:25;;;;;;;5.53;0.83;;;6.00;99.90;;;;;;4905563;28;20213;-64
2023/11/10 04:58:51;;;;;;;5.90;1.27;;;5.90;99.90;;;;;;4913641;28;20291;-64
2023/11/10 05:01:16;;;;;;;4.83;2.50;;;6.00;99.90;;;;;;4913728;28;20247;-63
2023/11/10 05:03:42;;;;;;;8.37;3.13;;;6.10;99.90;;;;;;4913316;28;20623;-63
2023/11/10 05:06:08;;;;;;;5.90;2.30;;;6.10;99.90;;;;;;4913153;28;20732;-65
2023/11/10 05:08:33;;;;;;;11.20;3.63;;;6.10;99.90;;;;;;4913528;28;20261;-64
2023/11/10 05:10:59;;;;;;;5.33;2.27;;;6.10;99.90;;;;;;4913407;28;20717;-65
2023/11/10 05:13:25;;;;;;;5.60;1.30;;;6.20;99.90;;;;;;4910651;28;20279;-65
2023/11/10 05:15:50;;;;;;;4.27;1.10;;;6.20;99.90;;;;;;4907477;28;20188;-64
2023/11/10 05:18:16;;;;;;;9.97;2.87;;;6.30;99.90;;;;;;4905551;28;20197;-64
2023/11/10 05:20:41;;;;;;;10.50;2.97;;;6.30;99.90;;;;;;4912181;28;20238;-65
2023/11/10 05:23:07;;;;;;;8.17;2.97;;;6.30;99.90;;;;;;4913333;28;20207;-65
2023/11/10 05:25:33;;;;;;;9.17;1.60;;;6.30;99.90;;;;;;4904828;28;20184;-63
2023/11/10 05:27:58;;;;;;;5.17;1.30;;;6.30;99.90;;;;;;4913088;28;20220;-63
2023/11/10 05:30:24;;;;;;;4.20;1.20;;;6.30;99.90;;;;;;4912663;28;20223;-64
2023/11/10 05:32:50;;;;;;;8.43;2.50;;;6.30;99.90;;;;;;4913138;28;20191;-63
2023/11/10 05:35:15;;;;;;;10.30;2.40;;;6.30;99.90;;;;;;4912395;28;20238;-63
2023/11/10 05:37:41;;;;;;;4.83;1.50;;;6.40;99.90;;;;;;4913055;28;20192;-64
2023/11/10 05:40:10;;;;;;;2.60;1.20;;;6.40;99.90;;;;;;4912867;28;20208;-65
2023/11/10 05:42:36;;;;;;;2.77;1.10;;;6.40;99.90;;;;;;4905606;28;20196;-63
2023/11/10 05:45:02;;;;;;;11.03;1.30;;;6.40;99.90;;;;;;4912843;28;20242;-65
2023/11/10 05:47:28;;;;;;;4.10;1.03;;;6.40;99.90;;;;;;4912782;28;20207;-64
2023/11/10 05:49:54;;;;;;;8.40;2.00;;;6.40;99.90;;;;;;4912697;28;20227;-65
2023/11/10 05:52:19;;;;;;;6.67;0.93;;;6.40;99.90;;;;;;4912802;28;20192;-65
2023/11/10 05:54:45;;;;;;;5.57;1.10;;;6.40;99.90;;;;;;4912068;28;20191;-64
2023/11/10 05:57:13;;;;;;;5.03;0.90;;;6.30;99.90;;;;;;4912787;28;20212;-64
2023/11/10 05:59:38;;;;;;;13.67;1.80;;;6.30;99.90;;;;;;4912816;28;20605;-64
2023/11/10 06:02:04;;;;;;;4.53;1.10;;;6.30;99.90;;;;;;4912728;28;20196;-64
2023/11/10 06:04:29;;;;;;;6.60;1.30;;;6.40;99.90;;;;;;4912032;28;20570;-64
2023/11/10 06:06:55;;;;;;;7.47;1.57;;;6.40;99.90;;;;;;4912572;28;20283;-64
2023/11/10 06:09:22;;;;;;;2.40;1.20;;;6.40;99.90;;;;;;4910647;28;20235;-64
2023/11/10 06:11:49;;;;;;;4.87;1.23;;;6.40;99.90;;;;;;4906410;28;20222;-64
2023/11/10 06:14:17;;;;;;;4.80;0.90;;;6.50;99.90;;;;;;4911740;28;20254;-64
2023/11/10 06:16:47;;;;;;;3.03;0.93;;;6.50;99.90;;;;;;4912554;28;20262;-65
2023/11/10 06:19:13;;;;;;;5.60;1.17;;;6.50;99.90;;;;;;4945505;28;20188;-64
2023/11/10 06:21:39;;;;;;;7.80;1.03;;;6.50;99.90;;;;;;4912451;28;20211;-64
2023/11/10 06:24:05;;;;;;;4.33;1.20;;;6.50;99.90;;;;;;4944865;28;20195;-65
2023/11/10 06:26:32;;;;;;;3.03;1.03;;;6.60;99.90;;;;;;4904225;28;20188;-64
2023/11/10 06:28:58;;;;;;;5.27;1.00;;;6.60;99.90;;;;;;4910964;28;20195;-63
2023/11/10 06:31:24;;;;;;;3.33;0.90;;;6.60;99.90;;;;;;4904134;28;20601;-65
2023/11/10 06:33:50;;;;;;;3.27;1.00;;;6.70;99.90;;;;;;4911328;28;20184;-64
2023/11/10 06:36:19;;;;;;;4.47;1.00;;;6.60;99.90;;;;;;4911947;28;20184;-64
2023/11/10 06:38:45;;;;;;;4.33;1.00;;;6.60;99.90;;;;;;4912092;28;20269;-63
2023/11/10 06:41:12;;;;;;;2.63;1.03;;;6.60;99.90;;;;;;4903842;28;20211;-63
2023/11/10 06:43:42;;;;;;;4.43;1.17;;;6.60;99.90;;;;;;4911756;28;20184;-64
2023/11/10 06:46:11;;;;;;;5.10;1.10;;;6.70;99.90;;;;;;4911611;28;20187;-64
2023/11/10 06:48:37;;;;;;;1.20;0.73;;;6.70;99.90;;;;;;4911967;28;20265;-64
2023/11/10 06:51:03;;;;;;;2.93;0.80;;;6.70;99.90;;;;;;4944915;28;20637;-64
2023/11/10 06:53:29;;;;;;;3.00;0.90;;;6.70;99.90;;;;;;4911465;28;20184;-65
2023/11/10 06:55:55;;;;;;;3.73;0.90;;;6.70;99.90;;;;;;4911154;28;20530;-64
2023/11/10 06:58:22;;;;;;;4.50;1.03;;;6.70;99.90;;;;;;4910790;28;20194;-63
2023/11/10 07:00:49;;;;;;;5.03;1.00;;;6.80;99.90;;;;;;4911111;28;20199;-64
2023/11/10 07:03:16;;;;;;;8.00;1.20;;;6.90;99.90;;;;;;4911120;28;20676;-63
2023/11/10 07:05:42;;;;;;;8.57;1.10;;;6.90;99.90;;;;;;4913595;28;20697;-64
2023/11/10 07:08:10;;;;;;;3.20;1.30;;;6.90;99.90;;;;;;4906869;28;20271;-65
2023/11/10 07:10:41;;;;;;;2.53;1.07;;;6.90;99.90;;;;;;4903389;28;20281;-65
2023/11/10 07:13:07;;;;;;;3.53;1.73;;;6.90;99.90;;;;;;4903531;28;20183;-65
2023/11/10 07:15:33;;;;;;;6.13;1.97;;;6.90;99.90;;;;;;4910345;28;20267;-65
2023/11/10 07:18:00;;;;;;;3.03;1.50;;;7.00;99.90;;;;;;4910819;28;20274;-64
2023/11/10 07:20:26;;;;;;;6.43;1.23;;;7.00;99.90;;;;;;4943562;28;20300;-64
2023/11/10 07:22:53;;;;;;;8.00;1.13;;;7.10;99.90;;;;;;4910864;28;20701;-64
2023/11/10 07:25:18;;;;;;;4.03;1.37;;;7.00;99.90;;;;;;4902186;28;20263;-64
2023/11/10 07:27:44;;;;;;;6.20;1.17;;;7.00;99.90;;;;;;4911017;28;20732;-63
2023/11/10 07:30:10;;;;;;;4.70;1.43;;;7.10;99.90;;;;;;4902662;28;20219;-63
2023/11/10 07:32:36;;;;;;;6.17;0.87;;;7.10;99.90;;;;;;4910588;28;20211;-65
2023/11/10 07:35:05;;;;;;;2.87;0.90;;;7.10;99.90;;;;;;4910265;28;20184;-64
2023/11/10 07:37:34;;;;;;;6.63;1.20;;;7.10;99.90;;;;;;4910422;28;20180;-65
2023/11/10 07:40:04;;;;;;;6.13;0.83;;;7.10;99.90;;;;;;4910486;28;20700;-64
2023/11/10 07:42:30;;;;;;;3.80;1.00;;;7.20;99.90;;;;;;4902672;28;20191;-65
2023/11/10 07:44:56;;;;;;;5.37;1.13;;;7.10;99.90;;;;;;4912264;28;20202;-65
2023/11/10 07:47:21;;;;;;;3.53;1.33;;;7.20;99.90;;;;;;4914233;28;20649;-64
2023/11/10 07:49:47;;;;;;;12.30;4.47;;;7.30;99.90;;;;;;4908669;28;20231;-65
2023/11/10 07:52:13;;;;;;;8.00;2.77;;;7.30;99.90;;;;;;4911044;28;20266;-65
2023/11/10 07:54:38;;;;;;;3.90;1.37;;;7.40;99.90;;;;;;4913321;28;20271;-65
2023/11/10 07:57:04;;;;;;;4.30;1.70;;;7.40;99.90;;;;;;4904675;28;20211;-65
2023/11/10 07:59:29;;;;;;;3.63;1.33;;;7.60;99.90;;;;;;4924883;28;20231;-66
2023/11/10 08:01:55;;;;;;;3.47;1.30;;;7.70;99.90;;;;;;4935389;28;20192;-66
2023/11/10 08:04:21;;;;;;;6.90;1.50;;;7.80;99.90;;;;;;4944690;28;20270;-66
2023/11/10 08:06:47;;;;;;;4.30;1.20;;;7.80;99.90;;;;;;4907742;28;20241;-65
2023/11/10 08:09:15;;;;;;;6.37;1.30;;;7.80;99.90;;;;;;4913477;28;20266;-65
2023/11/10 08:11:42;;;;;;;5.37;0.90;;;7.80;99.90;;;;;;4913568;28;20218;-65
2023/11/10 08:14:07;;;;;;;6.80;1.90;;;7.80;99.90;;;;;;4913168;28;20687;-64
2023/11/10 08:16:33;;;;;;;4.67;1.70;;;7.80;99.90;;;;;;4905347;28;20176;-65
2023/11/10 08:18:59;;;;;;;6.47;3.00;;;7.80;99.90;;;;;;4912324;28;20184;-65
2023/11/10 08:21:25;;;;;;;8.63;3.37;;;7.80;99.90;;;;;;4911903;28;20254;-65
2023/11/10 08:23:51;;;;;;;10.37;2.90;;;7.70;99.90;;;;;;4911870;28;20620;-65
2023/11/10 08:26:16;;;;;;;9.97;1.77;;;7.80;99.90;;;;;;4905373;28;20279;-62
2023/11/10 08:28:42;;;;;;;6.90;1.30;;;7.80;99.90;;;;;;4913447;28;20184;-66
2023/11/10 08:31:08;;;;;;;4.30;1.27;;;7.80;99.90;;;;;;4913343;28;20705;-65
2023/11/10 08:33:33;;;;;;;2.47;1.00;;;7.70;99.90;;;;;;4912978;28;20246;-66
2023/11/10 08:35:59;;;;;;;3.87;1.03;;;7.80;99.90;;;;;;4912786;28;20192;-64
2023/11/10 08:38:25;;;;;;;4.17;1.17;;;7.70;99.90;;;;;;4913087;28;20645;-64
2023/11/10 08:40:50;;;;;;;2.40;1.10;;;7.80;99.90;;;;;;4913213;28;20757;-64
2023/11/10 08:43:16;;;;;;;2.57;1.00;;;7.80;99.90;;;;;;4912922;28;20661;-63
2023/11/10 08:45:42;;;;;;;6.83;1.10;;;7.90;99.90;;;;;;4912766;28;20176;-65
2023/11/10 08:48:07;;;;;;;4.20;0.97;;;8.10;99.90;;;;;;4913180;28;20635;-65
2023/11/10 08:50:36;;;;;;;4.77;1.13;;;8.20;99.90;;;;;;4909639;28;20231;-64
2023/11/10 08:53:02;;;;;;;5.43;0.93;;;8.30;99.90;;;;;;4908836;28;20266;-65
2023/11/10 08:55:29;;;;;;;5.93;1.00;;;8.30;99.90;;;;;;4910811;28;20661;-65
2023/11/10 08:57:54;;;;;;;4.87;1.30;;;8.30;99.90;;;;;;4913089;28;20184;-64
2023/11/10 09:00:20;;;;;;;5.00;1.20;;;8.20;99.90;;;;;;4904990;28;20274;-64
2023/11/10 09:02:46;;;;;;;5.47;1.03;;;8.30;99.90;;;;;;4912892;28;20192;-64
2023/11/10 09:05:12;;;;;;;2.10;0.93;;;8.40;99.90;;;;;;4912155;28;20254;-65
2023/11/10 09:07:40;;;;;;;6.30;1.17;;;8.40;99.90;;;;;;4908916;28;20651;-65
2023/11/10 09:10:06;;;;;;;4.07;0.90;;;8.40;99.90;;;;;;4908771;28;20583;-65
2023/11/10 09:12:35;;;;;;;1.63;0.70;;;8.40;99.90;;;;;;4912820;28;20184;-65
2023/11/10 09:15:00;;;;;;;5.43;1.00;;;8.50;99.90;;;;;;4911813;28;20616;-65
2023/11/10 09:17:28;;;;;;;2.60;0.97;;;8.50;99.90;;;;;;4912425;28;20184;-65
2023/11/10 09:19:53;;;;;;;4.97;1.17;;;8.60;99.90;;;;;;4912621;28;20219;-64
2023/11/10 09:22:19;;;;;;;1.50;0.70;;;8.50;99.90;;;;;;4912466;28;20215;-65
2023/11/10 09:24:47;;;;;;;4.30;1.00;;;8.60;99.90;;;;;;4911901;28;20692;-65
2023/11/10 09:27:12;;;;;;;4.87;1.00;;;8.60;99.90;;;;;;4912311;28;20191;-65
2023/11/10 09:29:40;;;;;;;2.43;0.70;;;8.70;99.90;;;;;;4912338;28;20204;-66
2023/11/10 09:32:10;;;;;;;2.90;1.50;;;8.70;99.90;;;;;;4912615;28;20192;-65
2023/11/10 09:34:36;;;;;;;6.83;1.27;;;8.70;99.90;;;;;;4904314;28;20180;-66
2023/11/10 09:37:01;;;;;;;5.33;1.40;;;8.70;99.90;;;;;;4912428;28;20184;-65
2023/11/10 09:39:28;;;;;;;5.13;1.07;;;8.90;99.90;;;;;;4912573;28;20242;-65
2023/11/10 09:41:56;;;;;;;3.73;0.93;;;9.00;99.90;;;;;;4912248;28;20205;-64
2023/11/10 09:44:22;;;;;;;3.50;0.90;;;9.10;99.90;;;;;;4903816;28;20195;-65
2023/11/10 09:46:48;;;;;;;5.07;1.00;;;9.30;99.90;;;;;;4912299;28;20214;-65
2023/11/10 09:49:15;;;;;;;3.10;0.80;;;9.30;99.90;;;;;;4911836;28;20207;-66
2023/11/10 09:51:42;;;;;;;2.00;0.60;;;9.30;99.90;;;;;;4912084;28;20730;-65
2023/11/10 09:54:08;;;;;;;2.47;0.80;;;9.20;99.90;;;;;;4903971;28;20215;-65
2023/11/10 09:56:38;;;;;;;1.60;0.60;;;9.10;99.90;;;;;;4911068;28;20618;-65
2023/11/10 09:59:06;;;;;;;6.60;0.80;;;9.10;99.90;;;;;;4905088;28;20665;-65
2023/11/10 10:01:32;;;;;;;2.40;0.60;;;9.10;99.90;;;;;;4911019;28;20235;-65
2023/11/10 10:03:57;;;;;;;5.83;0.80;;;9.20;99.90;;;;;;4911510;28;20184;-65
2023/11/10 10:06:25;;;;;;;2.57;0.80;;;9.30;99.90;;;;;;4911223;28;20194;-65
2023/11/10 10:08:54;;;;;;;2.67;0.90;;;9.30;99.90;;;;;;4912060;28;20200;-65
2023/11/10 10:11:21;;;;;;;2.77;0.70;;;9.40;99.90;;;;;;4911568;28;20219;-65
2023/11/10 10:13:47;;;;;;;4.30;0.90;;;9.30;99.90;;;;;;4911224;28;20184;-64
2023/11/10 10:16:12;;;;;;;3.10;1.00;;;9.30;99.90;;;;;;4903887;28;20547;-64
2023/11/10 10:18:41;;;;;;;2.93;0.80;;;9.30;99.90;;;;;;4911836;28;20227;-64
2023/11/10 10:21:07;;;;;;;1.90;0.63;;;9.30;99.90;;;;;;4911540;28;20590;-64
2023/11/10 10:23:35;;;;;;;3.43;0.70;;;9.40;99.90;;;;;;4911432;28;20188;-64
2023/11/10 10:26:00;;;;;;;5.37;0.70;;;9.40;99.90;;;;;;4911193;28;20184;-64
2023/11/10 10:28:26;;;;;;;3.23;0.63;;;9.60;99.90;;;;;;4911415;28;20200;-63
2023/11/10 10:30:52;;;;;;;2.13;0.60;;;9.70;99.90;;;;;;4911620;28;20223;-64
2023/11/10 10:33:18;;;;;;;2.10;0.70;;;9.70;99.90;;;;;;4911305;28;20187;-64
2023/11/10 10:35:45;;;;;;;4.33;1.00;;;9.90;99.90;;;;;;4911069;28;20191;-64
2023/11/10 10:38:14;;;;;;;6.83;1.00;;;10.00;99.90;;;;;;4911594;28;20192;-64
2023/11/10 10:40:40;;;;;;;3.97;0.70;;;10.00;99.90;;;;;;4911136;28;20210;-64
2023/11/10 10:43:11;;;;;;;4.53;0.60;;;9.80;99.90;;;;;;4911456;28;20196;-64
2023/11/10 10:45:39;;;;;;;3.23;0.70;;;9.80;99.90;;;;;;4907559;28;20206;-63
2023/11/10 10:48:05;;;;;;;4.70;0.90;;;9.60;99.90;;;;;;4907397;28;20278;-66
2023/11/10 10:50:33;;;;;;;4.00;0.80;;;9.70;99.90;;;;;;4911020;28;20338;-65
2023/11/10 10:53:00;;;;;;;2.27;0.60;;;9.70;99.90;;;;;;4911290;28;20279;-65
2023/11/10 10:55:26;;;;;;;1.83;0.50;;;9.60;99.90;;;;;;4910265;28;20187;-65
2023/11/10 10:57:55;;;;;;;4.77;1.00;;;9.60;99.90;;;;;;4911305;28;20703;-65
2023/11/10 11:00:23;;;;;;;3.80;0.87;;;9.50;99.90;;;;;;4910927;28;20657;-64
2023/11/10 11:03:19;;;;;;;3.10;0.87;;;9.40;99.90;;;;;;4911278;28;20184;-64
2023/11/10 11:05:52;;;;;;;3.87;0.90;;;9.40;99.90;;;;;;4911877;28;20220;-64
2023/11/10 11:08:20;;;;;;;4.17;0.77;;;9.30;99.90;;;;;;4903494;28;20184;-64
2023/11/10 11:11:04;;;;;;;2.70;0.90;;;9.30;99.90;;;;;;4903240;28;20223;-64
2023/11/10 11:13:46;;;;;;;4.90;1.00;;;9.30;99.90;;;;;;4911044;28;20188;-65
2023/11/10 11:16:43;;;;;;;2.33;0.80;;;9.40;99.90;;;;;;4910699;28;20191;-63
2023/11/10 11:19:30;;;;;;;5.03;0.70;;;9.50;99.90;;;;;;4910009;28;20184;-64
2023/11/10 11:21:56;;;;;;;2.70;0.80;;;9.60;99.90;;;;;;4903274;28;20192;-64
2023/11/10 11:24:23;;;;;;;3.07;0.70;;;9.80;99.90;;;;;;4909824;28;20661;-64
2023/11/10 11:27:07;;;;;;;3.63;0.80;;;9.90;99.90;;;;;;4903052;28;20175;-64
2023/11/10 11:29:37;;;;;;;2.90;0.63;;;9.90;99.90;;;;;;4910730;28;20207;-64
2023/11/10 11:32:08;;;;;;;8.13;0.70;;;10.00;99.90;;;;;;4910841;28;20175;-65
2023/11/10 11:34:35;;;;;;;3.37;0.70;;;10.00;99.90;;;;;;4910164;28;20275;-64
2023/11/10 11:37:05;;;;;;;3.63;0.63;;;10.10;99.90;;;;;;4910847;28;20211;-64
2023/11/10 11:39:32;;;;;;;6.20;0.80;;;10.10;99.90;;;;;;4910629;28;20496;-64
2023/11/10 11:42:03;;;;;;;2.97;0.73;;;10.20;99.90;;;;;;4910506;28;20567;-64
2023/11/10 11:44:34;;;;;;;3.87;0.70;;;10.40;99.90;;;;;;4900129;28;20321;-64
2023/11/10 11:47:11;;;;;;;6.53;0.87;;;10.60;99.90;;;;;;4905776;28;20550;-65
2023/11/10 11:49:38;;;;;;;3.40;0.70;;;10.70;99.90;;;;;;4902348;28;20574;-67
2023/11/10 11:52:06;;;;;;;4.00;0.80;;;10.80;99.90;;;;;;4910580;28;20187;-67
2023/11/10 11:54:31;;;;;;;1.83;0.60;;;10.60;99.90;;;;;;4909946;28;20180;-65
2023/11/10 11:56:58;;;;;;;2.20;0.80;;;10.80;99.90;;;;;;4910646;28;20514;-65
2023/11/10 11:59:24;;;;;;;2.50;0.50;;;11.30;99.90;;;;;;4910327;28;20196;-65
2023/11/10 12:01:50;;;;;;;2.53;0.83;;;11.70;99.90;;;;;;4910257;28;20229;-65
2023/11/10 12:04:16;;;;;;;3.67;0.97;;;11.60;99.90;;;;;;4909593;28;20192;-65
2023/11/10 12:06:42;;;;;;;5.13;1.20;;;11.40;99.90;;;;;;4910279;28;20306;-65
2023/11/10 12:09:08;;;;;;;3.23;0.97;;;11.30;99.90;;;;;;4910572;28;20260;-65
2023/11/10 12:11:35;;;;;;;6.23;0.87;;;11.30;99.90;;;;;;4910039;28;20212;-65
2023/11/10 12:14:09;;;;;;;5.13;0.87;;;11.50;99.90;;;;;;4909621;28;20657;-65
2023/11/10 12:16:36;;;;;;;5.37;0.90;;;11.70;99.90;;;;;;4902315;28;20657;-66
2023/11/10 12:19:03;;;;;;;2.50;0.60;;;11.40;99.90;;;;;;4909169;28;20195;-65
2023/11/10 12:21:32;;;;;;;4.73;0.50;;;11.30;99.90;;;;;;4908926;28;20204;-65
2023/11/10 12:24:08;;;;;;;2.93;0.77;;;11.40;99.90;;;;;;4909518;28;20591;-65
2023/11/10 12:26:40;;;;;;;2.87;0.77;;;11.40;99.90;;;;;;4902232;28;20191;-65
2023/11/10 12:29:15;;;;;;;4.67;0.77;;;11.20;99.90;;;;;;4910212;28;20196;-65
2023/11/10 12:31:42;;;;;;;1.60;0.70;;;11.20;99.90;;;;;;4905939;28;20211;-65
2023/11/10 12:34:08;;;;;;;6.17;1.03;;;11.00;99.90;;;;;;4912707;28;20184;-65
2023/11/10 12:36:35;;;;;;;5.50;0.80;;;10.70;99.90;;;;;;4913144;28;20243;-65
2023/11/10 12:39:06;;;;;;;6.77;0.80;;;10.60;99.90;;;;;;4913310;28;20250;-65
2023/11/10 12:41:32;;;;;;;5.23;1.00;;;10.30;99.90;;;;;;4912816;28;20215;-65
2023/11/10 12:43:58;;;;;;;6.87;0.70;;;10.20;99.90;;;;;;4912624;28;20262;-65
2023/11/10 12:46:24;;;;;;;4.13;0.53;;;10.10;99.90;;;;;;4913248;28;20701;-67
2023/11/10 12:48:56;;;;;;;4.37;0.90;;;9.90;99.90;;;;;;4913002;28;20275;-66
2023/11/10 12:51:27;;;;;;;6.13;0.80;;;9.90;99.90;;;;;;4912659;28;20215;-66
2023/11/10 12:54:07;;;;;;;6.07;1.07;;;9.90;99.90;;;;;;4912446;28;20198;-66